sensor_id;sensor_type;location;lat;lon;timestamp;temperature;humidity
17174;DHT22;8702;48.130;-1.696;2023-04-24T00:01:53;11.10;99.90
17174;DHT22;8702;48.130;-1.696;2023-04-24T00:04:22;11.00;99.90
17174;DHT22;8702;48.130;-1.696;2023-04-24T00:06:52;11.00;99.90
17174;DHT22;8702;48.130;-1.696;2023-04-24T00:09:22;11.10;99.90
17174;DHT22;8702;48.130;-1.696;2023-04-24T00:11:50;11.10;99.90
17174;DHT22;8702;48.130;-1.696;2023-04-24T00:14:18;11.10;99.90
17174;DHT22;8702;48.130;-1.696;2023-04-24T00:16:46;11.20;99.90
17174;DHT22;8702;48.130;-1.696;2023-04-24T00:19:20;11.10;99.90
17174;DHT22;8702;48.130;-1.696;2023-04-24T00:21:47;11.00;99.90
17174;DHT22;8702;48.130;-1.696;2023-04-24T00:24:16;11.10;99.90
17174;DHT22;8702;48.130;-1.696;2023-04-24T00:26:43;11.00;99.90
17174;DHT22;8702;48.130;-1.696;2023-04-24T00:29:10;11.00;99.90
17174;DHT22;8702;48.130;-1.696;2023-04-24T00:31:37;11.00;99.90
17174;DHT22;8702;48.130;-1.696;2023-04-24T00:34:04;11.00;99.90
17174;DHT22;8702;48.130;-1.696;2023-04-24T00:36:33;11.00;99.90
17174;DHT22;8702;48.130;-1.696;2023-04-24T00:39:00;10.90;99.90
17174;DHT22;8702;48.130;-1.696;2023-04-24T00:41:28;10.90;99.90
17174;DHT22;8702;48.130;-1.696;2023-04-24T00:43:55;10.90;99.90
17174;DHT22;8702;48.130;-1.696;2023-04-24T00:46:22;10.80;99.90
17174;DHT22;8702;48.130;-1.696;2023-04-24T00:48:50;10.80;99.90
17174;DHT22;8702;48.130;-1.696;2023-04-24T00:51:17;10.90;99.90
17174;DHT22;8702;48.130;-1.696;2023-04-24T00:53:45;11.00;99.90
17174;DHT22;8702;48.130;-1.696;2023-04-24T00:56:12;11.00;99.90
17174;DHT22;8702;48.130;-1.696;2023-04-24T00:58:40;10.80;99.90
17174;DHT22;8702;48.130;-1.696;2023-04-24T01:01:07;10.80;99.90
17174;DHT22;8702;48.130;-1.696;2023-04-24T01:03:35;10.80;99.90
17174;DHT22;8702;48.130;-1.696;2023-04-24T01:06:04;10.80;99.90
17174;DHT22;8702;48.130;-1.696;2023-04-24T01:08:32;10.90;99.90
17174;DHT22;8702;48.130;-1.696;2023-04-24T01:11:03;10.80;99.90
17174;DHT22;8702;48.130;-1.696;2023-04-24T01:13:31;10.80;99.90
17174;DHT22;8702;48.130;-1.696;2023-04-24T01:15:59;10.70;99.90
17174;DHT22;8702;48.130;-1.696;2023-04-24T01:18:26;10.60;99.90
17174;DHT22;8702;48.130;-1.696;2023-04-24T01:20:57;10.60;99.90
17174;DHT22;8702;48.130;-1.696;2023-04-24T01:23:26;10.60;99.90
17174;DHT22;8702;48.130;-1.696;2023-04-24T01:25:53;10.60;99.90
17174;DHT22;8702;48.130;-1.696;2023-04-24T01:28:21;10.70;99.90
17174;DHT22;8702;48.130;-1.696;2023-04-24T01:30:48;10.60;99.90
17174;DHT22;8702;48.130;-1.696;2023-04-24T01:33:15;10.60;99.90
17174;DHT22;8702;48.130;-1.696;2023-04-24T01:35:43;10.60;99.90
17174;DHT22;8702;48.130;-1.696;2023-04-24T01:38:10;10.70;99.90
17174;DHT22;8702;48.130;-1.696;2023-04-24T01:40:39;10.50;99.90
17174;DHT22;8702;48.130;-1.696;2023-04-24T01:43:06;10.50;99.90
17174;DHT22;8702;48.130;-1.696;2023-04-24T01:45:34;10.50;99.90
17174;DHT22;8702;48.130;-1.696;2023-04-24T01:48:01;10.50;99.90
17174;DHT22;8702;48.130;-1.696;2023-04-24T01:50:28;10.50;99.90
17174;DHT22;8702;48.130;-1.696;2023-04-24T01:57:59;10.60;99.90
17174;DHT22;8702;48.130;-1.696;2023-04-24T02:00:27;10.50;99.90
17174;DHT22;8702;48.130;-1.696;2023-04-24T02:02:54;10.60;99.90
17174;DHT22;8702;48.130;-1.696;2023-04-24T02:05:21;10.50;99.90
17174;DHT22;8702;48.130;-1.696;2023-04-24T02:07:48;10.50;99.90
17174;DHT22;8702;48.130;-1.696;2023-04-24T02:10:15;10.50;99.90
17174;DHT22;8702;48.130;-1.696;2023-04-24T02:12:42;10.40;99.90
17174;DHT22;8702;48.130;-1.696;2023-04-24T02:15:11;10.60;99.90
17174;DHT22;8702;48.130;-1.696;2023-04-24T02:17:38;10.60;99.90
17174;DHT22;8702;48.130;-1.696;2023-04-24T02:20:07;10.60;99.90
17174;DHT22;8702;48.130;-1.696;2023-04-24T02:22:34;10.60;99.90
17174;DHT22;8702;48.130;-1.696;2023-04-24T02:25:01;10.60;99.90
17174;DHT22;8702;48.130;-1.696;2023-04-24T02:27:28;10.60;99.90
17174;DHT22;8702;48.130;-1.696;2023-04-24T02:29:55;10.60;99.90
17174;DHT22;8702;48.130;-1.696;2023-04-24T02:32:23;10.50;99.90
17174;DHT22;8702;48.130;-1.696;2023-04-24T02:34:50;10.40;99.90
17174;DHT22;8702;48.130;-1.696;2023-04-24T02:37:17;10.40;99.90
17174;DHT22;8702;48.130;-1.696;2023-04-24T02:39:44;10.40;99.90
17174;DHT22;8702;48.130;-1.696;2023-04-24T02:42:11;10.30;99.90
17174;DHT22;8702;48.130;-1.696;2023-04-24T02:44:38;10.40;99.90
17174;DHT22;8702;48.130;-1.696;2023-04-24T02:47:04;10.40;99.90
17174;DHT22;8702;48.130;-1.696;2023-04-24T02:49:33;10.40;99.90
17174;DHT22;8702;48.130;-1.696;2023-04-24T02:52:00;10.40;99.90
17174;DHT22;8702;48.130;-1.696;2023-04-24T02:54:27;10.30;99.90
17174;DHT22;8702;48.130;-1.696;2023-04-24T02:56:54;10.30;99.90
17174;DHT22;8702;48.130;-1.696;2023-04-24T02:59:22;10.20;99.90
17174;DHT22;8702;48.130;-1.696;2023-04-24T03:01:49;10.20;99.90
17174;DHT22;8702;48.130;-1.696;2023-04-24T03:04:16;10.20;99.90
17174;DHT22;8702;48.130;-1.696;2023-04-24T03:06:47;10.30;99.90
17174;DHT22;8702;48.130;-1.696;2023-04-24T03:09:14;10.40;99.90
17174;DHT22;8702;48.130;-1.696;2023-04-24T03:11:41;10.60;99.90
17174;DHT22;8702;48.130;-1.696;2023-04-24T03:14:08;10.60;99.90
17174;DHT22;8702;48.130;-1.696;2023-04-24T03:16:34;10.60;99.90
17174;DHT22;8702;48.130;-1.696;2023-04-24T03:19:01;10.50;99.90
17174;DHT22;8702;48.130;-1.696;2023-04-24T03:21:28;10.50;99.90
17174;DHT22;8702;48.130;-1.696;2023-04-24T03:23:57;10.60;99.90
17174;DHT22;8702;48.130;-1.696;2023-04-24T03:26:24;10.60;99.90
17174;DHT22;8702;48.130;-1.696;2023-04-24T03:28:51;10.70;99.90
17174;DHT22;8702;48.130;-1.696;2023-04-24T03:31:18;10.60;99.90
17174;DHT22;8702;48.130;-1.696;2023-04-24T03:33:46;10.60;99.90
17174;DHT22;8702;48.130;-1.696;2023-04-24T03:36:13;10.40;99.90
17174;DHT22;8702;48.130;-1.696;2023-04-24T03:38:40;10.40;99.90
17174;DHT22;8702;48.130;-1.696;2023-04-24T03:41:08;10.40;99.90
17174;DHT22;8702;48.130;-1.696;2023-04-24T03:43:35;10.40;99.90
17174;DHT22;8702;48.130;-1.696;2023-04-24T03:46:02;10.50;99.90
17174;DHT22;8702;48.130;-1.696;2023-04-24T03:48:29;10.50;99.90
17174;DHT22;8702;48.130;-1.696;2023-04-24T03:50:56;10.60;99.90
17174;DHT22;8702;48.130;-1.696;2023-04-24T03:53:23;10.60;99.90
17174;DHT22;8702;48.130;-1.696;2023-04-24T03:55:50;10.60;99.90
17174;DHT22;8702;48.130;-1.696;2023-04-24T03:58:18;10.60;99.90
17174;DHT22;8702;48.130;-1.696;2023-04-24T04:00:46;10.60;99.90
17174;DHT22;8702;48.130;-1.696;2023-04-24T04:03:13;10.50;99.90
17174;DHT22;8702;48.130;-1.696;2023-04-24T04:05:40;10.60;99.90
17174;DHT22;8702;48.130;-1.696;2023-04-24T04:08:07;10.50;99.90
17174;DHT22;8702;48.130;-1.696;2023-04-24T04:10:34;10.50;99.90
17174;DHT22;8702;48.130;-1.696;2023-04-24T04:13:01;10.50;99.90
17174;DHT22;8702;48.130;-1.696;2023-04-24T04:15:29;10.40;99.90
17174;DHT22;8702;48.130;-1.696;2023-04-24T04:17:56;10.30;99.90
17174;DHT22;8702;48.130;-1.696;2023-04-24T04:20:23;10.50;99.90
17174;DHT22;8702;48.130;-1.696;2023-04-24T04:22:50;10.50;99.90
17174;DHT22;8702;48.130;-1.696;2023-04-24T04:25:17;10.40;99.90
17174;DHT22;8702;48.130;-1.696;2023-04-24T04:27:45;10.20;99.90
17174;DHT22;8702;48.130;-1.696;2023-04-24T04:30:13;10.30;99.90
17174;DHT22;8702;48.130;-1.696;2023-04-24T04:32:41;10.20;99.90
17174;DHT22;8702;48.130;-1.696;2023-04-24T04:35:08;10.20;99.90
17174;DHT22;8702;48.130;-1.696;2023-04-24T04:37:35;10.30;99.90
17174;DHT22;8702;48.130;-1.696;2023-04-24T04:40:03;10.20;99.90
17174;DHT22;8702;48.130;-1.696;2023-04-24T04:42:32;10.20;99.90
17174;DHT22;8702;48.130;-1.696;2023-04-24T04:45:00;10.30;99.90
17174;DHT22;8702;48.130;-1.696;2023-04-24T04:47:28;10.20;99.90
17174;DHT22;8702;48.130;-1.696;2023-04-24T04:49:58;10.20;99.90
17174;DHT22;8702;48.130;-1.696;2023-04-24T04:52:25;10.20;99.90
17174;DHT22;8702;48.130;-1.696;2023-04-24T04:54:52;10.20;99.90
17174;DHT22;8702;48.130;-1.696;2023-04-24T04:57:19;10.30;99.90
17174;DHT22;8702;48.130;-1.696;2023-04-24T04:59:47;10.30;99.90
17174;DHT22;8702;48.130;-1.696;2023-04-24T05:02:14;10.30;99.90
17174;DHT22;8702;48.130;-1.696;2023-04-24T05:04:41;10.20;99.90
17174;DHT22;8702;48.130;-1.696;2023-04-24T05:07:09;10.20;99.90
17174;DHT22;8702;48.130;-1.696;2023-04-24T05:09:36;10.20;99.90
17174;DHT22;8702;48.130;-1.696;2023-04-24T05:12:03;10.40;99.90
17174;DHT22;8702;48.130;-1.696;2023-04-24T05:14:30;10.40;99.90
17174;DHT22;8702;48.130;-1.696;2023-04-24T05:16:57;10.30;99.90
17174;DHT22;8702;48.130;-1.696;2023-04-24T05:19:25;10.20;99.90
17174;DHT22;8702;48.130;-1.696;2023-04-24T05:21:52;10.20;99.90
17174;DHT22;8702;48.130;-1.696;2023-04-24T05:24:21;10.30;99.90
17174;DHT22;8702;48.130;-1.696;2023-04-24T05:26:47;10.30;99.90
17174;DHT22;8702;48.130;-1.696;2023-04-24T05:29:14;10.30;99.90
17174;DHT22;8702;48.130;-1.696;2023-04-24T05:31:41;10.30;99.90
17174;DHT22;8702;48.130;-1.696;2023-04-24T05:34:10;10.30;99.90
17174;DHT22;8702;48.130;-1.696;2023-04-24T05:36:37;10.20;99.90
17174;DHT22;8702;48.130;-1.696;2023-04-24T05:39:04;10.30;99.90
17174;DHT22;8702;48.130;-1.696;2023-04-24T05:41:33;10.30;99.90
17174;DHT22;8702;48.130;-1.696;2023-04-24T05:44:00;10.30;99.90
17174;DHT22;8702;48.130;-1.696;2023-04-24T05:46:27;10.30;99.90
17174;DHT22;8702;48.130;-1.696;2023-04-24T05:48:54;10.20;99.90
17174;DHT22;8702;48.130;-1.696;2023-04-24T05:51:21;10.20;99.90
17174;DHT22;8702;48.130;-1.696;2023-04-24T05:53:47;10.10;99.90
17174;DHT22;8702;48.130;-1.696;2023-04-24T05:56:15;10.10;99.90
17174;DHT22;8702;48.130;-1.696;2023-04-24T05:58:43;10.00;99.90
17174;DHT22;8702;48.130;-1.696;2023-04-24T06:01:11;10.00;99.90
17174;DHT22;8702;48.130;-1.696;2023-04-24T06:03:40;10.00;99.90
17174;DHT22;8702;48.130;-1.696;2023-04-24T06:06:08;10.00;99.90
17174;DHT22;8702;48.130;-1.696;2023-04-24T06:08:35;10.00;99.90
17174;DHT22;8702;48.130;-1.696;2023-04-24T06:11:02;10.10;99.90
17174;DHT22;8702;48.130;-1.696;2023-04-24T06:13:29;10.00;99.90
17174;DHT22;8702;48.130;-1.696;2023-04-24T06:15:57;10.10;99.90
17174;DHT22;8702;48.130;-1.696;2023-04-24T06:18:24;10.10;99.90
17174;DHT22;8702;48.130;-1.696;2023-04-24T06:20:51;10.10;99.90
17174;DHT22;8702;48.130;-1.696;2023-04-24T06:23:18;10.10;99.90
17174;DHT22;8702;48.130;-1.696;2023-04-24T06:25:45;10.10;99.90
17174;DHT22;8702;48.130;-1.696;2023-04-24T06:28:13;10.10;99.90
17174;DHT22;8702;48.130;-1.696;2023-04-24T06:30:40;10.10;99.90
17174;DHT22;8702;48.130;-1.696;2023-04-24T06:33:08;10.00;99.90
17174;DHT22;8702;48.130;-1.696;2023-04-24T06:35:36;10.00;99.90
17174;DHT22;8702;48.130;-1.696;2023-04-24T06:38:03;9.90;99.90
17174;DHT22;8702;48.130;-1.696;2023-04-24T06:40:30;10.00;99.90
17174;DHT22;8702;48.130;-1.696;2023-04-24T06:42:57;10.00;99.90
17174;DHT22;8702;48.130;-1.696;2023-04-24T06:45:25;9.90;99.90
17174;DHT22;8702;48.130;-1.696;2023-04-24T06:47:52;10.00;99.90
17174;DHT22;8702;48.130;-1.696;2023-04-24T06:50:21;10.00;99.90
17174;DHT22;8702;48.130;-1.696;2023-04-24T06:52:48;10.10;99.90
17174;DHT22;8702;48.130;-1.696;2023-04-24T06:55:15;10.10;99.90
17174;DHT22;8702;48.130;-1.696;2023-04-24T06:57:42;10.20;99.90
17174;DHT22;8702;48.130;-1.696;2023-04-24T07:00:11;10.30;99.90
17174;DHT22;8702;48.130;-1.696;2023-04-24T07:02:38;10.40;99.90
17174;DHT22;8702;48.130;-1.696;2023-04-24T07:05:06;10.50;99.90
17174;DHT22;8702;48.130;-1.696;2023-04-24T07:07:35;10.50;99.90
17174;DHT22;8702;48.130;-1.696;2023-04-24T07:10:04;10.60;99.90
17174;DHT22;8702;48.130;-1.696;2023-04-24T07:12:31;10.50;99.90
17174;DHT22;8702;48.130;-1.696;2023-04-24T07:14:58;10.50;99.90
17174;DHT22;8702;48.130;-1.696;2023-04-24T07:17:25;10.50;99.90
17174;DHT22;8702;48.130;-1.696;2023-04-24T07:19:52;10.50;99.90
17174;DHT22;8702;48.130;-1.696;2023-04-24T07:22:19;10.70;99.90
17174;DHT22;8702;48.130;-1.696;2023-04-24T07:24:47;10.70;99.90
17174;DHT22;8702;48.130;-1.696;2023-04-24T07:27:14;10.70;99.90
17174;DHT22;8702;48.130;-1.696;2023-04-24T07:29:41;10.80;99.90
17174;DHT22;8702;48.130;-1.696;2023-04-24T07:32:08;10.70;99.90
17174;DHT22;8702;48.130;-1.696;2023-04-24T07:34:35;10.70;99.90
17174;DHT22;8702;48.130;-1.696;2023-04-24T07:37:02;10.70;99.90
17174;DHT22;8702;48.130;-1.696;2023-04-24T07:39:29;10.70;99.90
17174;DHT22;8702;48.130;-1.696;2023-04-24T07:41:58;10.70;99.90
17174;DHT22;8702;48.130;-1.696;2023-04-24T07:44:27;10.80;99.90
17174;DHT22;8702;48.130;-1.696;2023-04-24T07:46:55;10.80;99.90
17174;DHT22;8702;48.130;-1.696;2023-04-24T07:49:22;10.90;99.90
17174;DHT22;8702;48.130;-1.696;2023-04-24T07:51:49;10.80;99.90
17174;DHT22;8702;48.130;-1.696;2023-04-24T07:54:16;10.80;99.90
17174;DHT22;8702;48.130;-1.696;2023-04-24T07:56:43;10.90;99.90
17174;DHT22;8702;48.130;-1.696;2023-04-24T07:59:12;10.80;99.90
17174;DHT22;8702;48.130;-1.696;2023-04-24T08:01:39;10.90;99.90
17174;DHT22;8702;48.130;-1.696;2023-04-24T08:04:06;11.00;99.90
17174;DHT22;8702;48.130;-1.696;2023-04-24T08:06:33;11.00;99.90
17174;DHT22;8702;48.130;-1.696;2023-04-24T08:09:00;11.10;99.90
17174;DHT22;8702;48.130;-1.696;2023-04-24T08:13:55;11.30;99.90
17174;DHT22;8702;48.130;-1.696;2023-04-24T08:16:24;11.20;99.90
17174;DHT22;8702;48.130;-1.696;2023-04-24T08:18:53;11.30;99.90
17174;DHT22;8702;48.130;-1.696;2023-04-24T08:21:20;11.30;99.90
17174;DHT22;8702;48.130;-1.696;2023-04-24T08:23:47;11.30;99.90
17174;DHT22;8702;48.130;-1.696;2023-04-24T08:26:14;11.30;99.90
17174;DHT22;8702;48.130;-1.696;2023-04-24T08:28:41;11.40;99.90
17174;DHT22;8702;48.130;-1.696;2023-04-24T08:31:11;11.50;99.90
17174;DHT22;8702;48.130;-1.696;2023-04-24T08:33:39;11.60;99.90
17174;DHT22;8702;48.130;-1.696;2023-04-24T08:36:07;11.60;99.90
17174;DHT22;8702;48.130;-1.696;2023-04-24T08:38:34;11.70;99.90
17174;DHT22;8702;48.130;-1.696;2023-04-24T08:41:01;11.70;99.90
17174;DHT22;8702;48.130;-1.696;2023-04-24T08:43:32;11.70;99.90
17174;DHT22;8702;48.130;-1.696;2023-04-24T08:45:59;11.80;99.90
17174;DHT22;8702;48.130;-1.696;2023-04-24T08:48:27;11.80;99.90
17174;DHT22;8702;48.130;-1.696;2023-04-24T08:50:56;12.00;99.90
17174;DHT22;8702;48.130;-1.696;2023-04-24T08:53:26;12.10;99.90
17174;DHT22;8702;48.130;-1.696;2023-04-24T08:55:54;12.10;99.90
17174;DHT22;8702;48.130;-1.696;2023-04-24T08:58:22;12.20;99.90
17174;DHT22;8702;48.130;-1.696;2023-04-24T09:00:49;12.30;99.90
17174;DHT22;8702;48.130;-1.696;2023-04-24T09:03:17;12.40;99.90
17174;DHT22;8702;48.130;-1.696;2023-04-24T09:05:46;12.40;99.90
17174;DHT22;8702;48.130;-1.696;2023-04-24T09:08:18;12.30;99.90
17174;DHT22;8702;48.130;-1.696;2023-04-24T09:10:45;12.40;99.90
17174;DHT22;8702;48.130;-1.696;2023-04-24T09:13:13;12.50;99.90
17174;DHT22;8702;48.130;-1.696;2023-04-24T09:15:41;12.50;99.90
17174;DHT22;8702;48.130;-1.696;2023-04-24T09:18:08;12.60;99.90
17174;DHT22;8702;48.130;-1.696;2023-04-24T09:20:35;12.70;99.90
17174;DHT22;8702;48.130;-1.696;2023-04-24T09:23:26;12.70;99.90
17174;DHT22;8702;48.130;-1.696;2023-04-24T09:25:54;12.70;99.90
17174;DHT22;8702;48.130;-1.696;2023-04-24T09:28:26;12.70;99.90
17174;DHT22;8702;48.130;-1.696;2023-04-24T09:31:04;12.80;99.90
17174;DHT22;8702;48.130;-1.696;2023-04-24T09:33:31;12.70;99.90
17174;DHT22;8702;48.130;-1.696;2023-04-24T09:35:58;12.70;99.90
17174;DHT22;8702;48.130;-1.696;2023-04-24T09:38:37;12.80;99.90
17174;DHT22;8702;48.130;-1.696;2023-04-24T09:41:06;12.90;99.90
17174;DHT22;8702;48.130;-1.696;2023-04-24T09:43:34;13.00;99.90
17174;DHT22;8702;48.130;-1.696;2023-04-24T09:46:05;13.00;99.90
17174;DHT22;8702;48.130;-1.696;2023-04-24T09:48:33;12.90;99.90
17174;DHT22;8702;48.130;-1.696;2023-04-24T09:51:01;12.90;99.90
17174;DHT22;8702;48.130;-1.696;2023-04-24T09:53:29;12.90;99.90
17174;DHT22;8702;48.130;-1.696;2023-04-24T09:56:02;13.00;99.90
17174;DHT22;8702;48.130;-1.696;2023-04-24T09:58:30;13.00;99.90
17174;DHT22;8702;48.130;-1.696;2023-04-24T10:00:57;13.00;99.90
17174;DHT22;8702;48.130;-1.696;2023-04-24T10:05:53;12.90;99.90
17174;DHT22;8702;48.130;-1.696;2023-04-24T10:08:21;13.00;99.90
17174;DHT22;8702;48.130;-1.696;2023-04-24T10:10:51;13.00;99.90
17174;DHT22;8702;48.130;-1.696;2023-04-24T10:13:20;13.10;99.90
17174;DHT22;8702;48.130;-1.696;2023-04-24T10:18:15;13.10;99.90
17174;DHT22;8702;48.130;-1.696;2023-04-24T10:20:42;13.20;99.90
17174;DHT22;8702;48.130;-1.696;2023-04-24T10:23:09;13.30;99.90
17174;DHT22;8702;48.130;-1.696;2023-04-24T10:25:37;13.30;99.90
17174;DHT22;8702;48.130;-1.696;2023-04-24T10:30:34;13.30;99.90
17174;DHT22;8702;48.130;-1.696;2023-04-24T10:33:02;13.30;99.90
17174;DHT22;8702;48.130;-1.696;2023-04-24T10:35:31;13.30;99.90
17174;DHT22;8702;48.130;-1.696;2023-04-24T10:38:02;13.30;99.90
17174;DHT22;8702;48.130;-1.696;2023-04-24T10:40:31;13.40;99.90
17174;DHT22;8702;48.130;-1.696;2023-04-24T10:43:01;13.40;99.90
17174;DHT22;8702;48.130;-1.696;2023-04-24T10:45:28;13.50;99.90
17174;DHT22;8702;48.130;-1.696;2023-04-24T10:48:01;13.60;99.90
17174;DHT22;8702;48.130;-1.696;2023-04-24T10:50:30;13.60;99.90
17174;DHT22;8702;48.130;-1.696;2023-04-24T10:53:13;13.60;99.90
17174;DHT22;8702;48.130;-1.696;2023-04-24T10:55:42;13.60;99.90
17174;DHT22;8702;48.130;-1.696;2023-04-24T10:58:10;13.60;99.90
17174;DHT22;8702;48.130;-1.696;2023-04-24T11:00:37;13.60;99.90
17174;DHT22;8702;48.130;-1.696;2023-04-24T11:03:07;13.70;99.90
17174;DHT22;8702;48.130;-1.696;2023-04-24T11:05:51;13.60;99.90
17174;DHT22;8702;48.130;-1.696;2023-04-24T11:11:07;13.40;99.90
17174;DHT22;8702;48.130;-1.696;2023-04-24T11:14:06;13.50;99.90
17174;DHT22;8702;48.130;-1.696;2023-04-24T11:16:37;13.60;99.90
17174;DHT22;8702;48.130;-1.696;2023-04-24T11:19:08;13.50;99.90
17174;DHT22;8702;48.130;-1.696;2023-04-24T11:21:42;13.50;99.90
17174;DHT22;8702;48.130;-1.696;2023-04-24T11:24:32;13.40;99.90
17174;DHT22;8702;48.130;-1.696;2023-04-24T11:27:06;13.50;99.90
17174;DHT22;8702;48.130;-1.696;2023-04-24T11:29:47;13.60;99.90
17174;DHT22;8702;48.130;-1.696;2023-04-24T11:32:23;13.60;99.90
17174;DHT22;8702;48.130;-1.696;2023-04-24T11:34:53;13.70;99.90
17174;DHT22;8702;48.130;-1.696;2023-04-24T11:37:22;13.80;99.90
17174;DHT22;8702;48.130;-1.696;2023-04-24T11:39:51;13.90;99.90
17174;DHT22;8702;48.130;-1.696;2023-04-24T11:42:18;13.90;99.90
17174;DHT22;8702;48.130;-1.696;2023-04-24T11:44:46;14.00;99.90
17174;DHT22;8702;48.130;-1.696;2023-04-24T11:47:14;14.10;99.90
17174;DHT22;8702;48.130;-1.696;2023-04-24T11:49:41;14.10;99.90
17174;DHT22;8702;48.130;-1.696;2023-04-24T11:52:09;14.30;99.90
17174;DHT22;8702;48.130;-1.696;2023-04-24T11:54:37;14.30;99.90
17174;DHT22;8702;48.130;-1.696;2023-04-24T11:57:06;14.30;99.90
17174;DHT22;8702;48.130;-1.696;2023-04-24T11:59:36;14.30;99.90
17174;DHT22;8702;48.130;-1.696;2023-04-24T12:02:04;14.20;99.90
17174;DHT22;8702;48.130;-1.696;2023-04-24T12:04:39;14.20;99.90
17174;DHT22;8702;48.130;-1.696;2023-04-24T12:07:07;14.30;99.90
17174;DHT22;8702;48.130;-1.696;2023-04-24T12:09:42;14.30;99.90
17174;DHT22;8702;48.130;-1.696;2023-04-24T12:12:11;14.30;99.90
17174;DHT22;8702;48.130;-1.696;2023-04-24T12:14:47;14.30;99.90
17174;DHT22;8702;48.130;-1.696;2023-04-24T12:17:14;14.40;99.90
17174;DHT22;8702;48.130;-1.696;2023-04-24T12:19:46;14.50;99.90
17174;DHT22;8702;48.130;-1.696;2023-04-24T12:22:16;14.50;99.90
17174;DHT22;8702;48.130;-1.696;2023-04-24T12:25:01;14.60;99.90
17174;DHT22;8702;48.130;-1.696;2023-04-24T12:27:32;14.90;99.90
17174;DHT22;8702;48.130;-1.696;2023-04-24T12:30:00;14.60;99.90
17174;DHT22;8702;48.130;-1.696;2023-04-24T12:32:28;14.70;98.70
17174;DHT22;8702;48.130;-1.696;2023-04-24T12:34:55;14.70;99.10
17174;DHT22;8702;48.130;-1.696;2023-04-24T12:37:23;14.70;98.70
17174;DHT22;8702;48.130;-1.696;2023-04-24T12:40:03;14.60;98.80
17174;DHT22;8702;48.130;-1.696;2023-04-24T12:42:31;14.60;98.80
17174;DHT22;8702;48.130;-1.696;2023-04-24T12:45:01;14.60;99.40
17174;DHT22;8702;48.130;-1.696;2023-04-24T12:47:29;14.60;99.80
17174;DHT22;8702;48.130;-1.696;2023-04-24T12:49:57;14.70;99.50
17174;DHT22;8702;48.130;-1.696;2023-04-24T12:52:27;14.60;99.10
17174;DHT22;8702;48.130;-1.696;2023-04-24T12:54:56;14.50;99.90
17174;DHT22;8702;48.130;-1.696;2023-04-24T12:57:25;14.50;99.30
17174;DHT22;8702;48.130;-1.696;2023-04-24T12:59:54;14.60;99.90
17174;DHT22;8702;48.130;-1.696;2023-04-24T13:02:22;14.70;99.80
17174;DHT22;8702;48.130;-1.696;2023-04-24T13:04:50;14.60;99.90
17174;DHT22;8702;48.130;-1.696;2023-04-24T13:07:17;14.70;99.90
17174;DHT22;8702;48.130;-1.696;2023-04-24T13:09:44;14.80;99.90
17174;DHT22;8702;48.130;-1.696;2023-04-24T13:12:12;14.90;99.90
17174;DHT22;8702;48.130;-1.696;2023-04-24T13:14:40;15.00;99.90
17174;DHT22;8702;48.130;-1.696;2023-04-24T13:17:07;14.90;98.90
17174;DHT22;8702;48.130;-1.696;2023-04-24T13:19:38;14.90;99.90
17174;DHT22;8702;48.130;-1.696;2023-04-24T13:22:06;15.00;99.90
17174;DHT22;8702;48.130;-1.696;2023-04-24T13:24:33;15.00;99.90
17174;DHT22;8702;48.130;-1.696;2023-04-24T13:27:00;15.10;99.90
17174;DHT22;8702;48.130;-1.696;2023-04-24T13:29:28;15.10;99.90
17174;DHT22;8702;48.130;-1.696;2023-04-24T13:31:56;15.10;99.90
17174;DHT22;8702;48.130;-1.696;2023-04-24T13:34:24;15.10;99.90
17174;DHT22;8702;48.130;-1.696;2023-04-24T13:36:52;15.10;99.90
17174;DHT22;8702;48.130;-1.696;2023-04-24T13:39:19;15.10;99.90
17174;DHT22;8702;48.130;-1.696;2023-04-24T13:41:46;15.10;99.90
17174;DHT22;8702;48.130;-1.696;2023-04-24T13:44:14;15.10;99.90
17174;DHT22;8702;48.130;-1.696;2023-04-24T13:46:41;15.20;99.90
17174;DHT22;8702;48.130;-1.696;2023-04-24T13:49:11;15.20;99.90
17174;DHT22;8702;48.130;-1.696;2023-04-24T13:51:38;15.30;99.90
17174;DHT22;8702;48.130;-1.696;2023-04-24T13:54:05;15.40;99.90
17174;DHT22;8702;48.130;-1.696;2023-04-24T13:56:32;15.60;99.90
17174;DHT22;8702;48.130;-1.696;2023-04-24T13:59:00;15.80;99.90
17174;DHT22;8702;48.130;-1.696;2023-04-24T14:01:27;15.90;99.90
17174;DHT22;8702;48.130;-1.696;2023-04-24T14:03:55;15.90;99.90
17174;DHT22;8702;48.130;-1.696;2023-04-24T14:06:23;16.00;99.90
17174;DHT22;8702;48.130;-1.696;2023-04-24T14:11:19;15.60;99.90
17174;DHT22;8702;48.130;-1.696;2023-04-24T14:13:46;15.50;99.90
17174;DHT22;8702;48.130;-1.696;2023-04-24T14:16:13;15.50;99.90
17174;DHT22;8702;48.130;-1.696;2023-04-24T14:18:40;15.50;99.90
17174;DHT22;8702;48.130;-1.696;2023-04-24T14:21:07;15.40;99.90
17174;DHT22;8702;48.130;-1.696;2023-04-24T14:23:36;15.30;99.90
17174;DHT22;8702;48.130;-1.696;2023-04-24T14:26:02;15.20;99.90
17174;DHT22;8702;48.130;-1.696;2023-04-24T14:28:29;15.20;99.90
17174;DHT22;8702;48.130;-1.696;2023-04-24T14:30:56;15.10;99.90
17174;DHT22;8702;48.130;-1.696;2023-04-24T14:33:23;15.00;99.90
17174;DHT22;8702;48.130;-1.696;2023-04-24T14:38:17;14.40;99.90
17174;DHT22;8702;48.130;-1.696;2023-04-24T14:40:46;14.50;99.90
17174;DHT22;8702;48.130;-1.696;2023-04-24T14:43:13;14.80;99.90
17174;DHT22;8702;48.130;-1.696;2023-04-24T14:45:40;15.10;99.90
17174;DHT22;8702;48.130;-1.696;2023-04-24T14:48:07;15.50;99.90
17174;DHT22;8702;48.130;-1.696;2023-04-24T14:50:35;15.60;99.90
17174;DHT22;8702;48.130;-1.696;2023-04-24T14:53:02;15.70;99.90
17174;DHT22;8702;48.130;-1.696;2023-04-24T14:55:29;15.70;99.90
17174;DHT22;8702;48.130;-1.696;2023-04-24T14:58:00;15.90;99.90
17174;DHT22;8702;48.130;-1.696;2023-04-24T15:00:27;15.80;99.90
17174;DHT22;8702;48.130;-1.696;2023-04-24T15:02:54;15.80;99.90
17174;DHT22;8702;48.130;-1.696;2023-04-24T15:05:21;15.70;99.90
17174;DHT22;8702;48.130;-1.696;2023-04-24T15:07:48;15.60;99.90
17174;DHT22;8702;48.130;-1.696;2023-04-24T15:10:15;15.10;99.90
17174;DHT22;8702;48.130;-1.696;2023-04-24T15:12:43;14.80;99.90
17174;DHT22;8702;48.130;-1.696;2023-04-24T15:15:11;14.50;99.90
17174;DHT22;8702;48.130;-1.696;2023-04-24T15:17:38;14.50;99.90
17174;DHT22;8702;48.130;-1.696;2023-04-24T15:20:06;14.50;99.90
17174;DHT22;8702;48.130;-1.696;2023-04-24T15:22:34;14.50;99.90
17174;DHT22;8702;48.130;-1.696;2023-04-24T15:25:01;14.60;99.90
17174;DHT22;8702;48.130;-1.696;2023-04-24T15:27:39;15.10;99.90
17174;DHT22;8702;48.130;-1.696;2023-04-24T15:30:08;15.70;99.90
17174;DHT22;8702;48.130;-1.696;2023-04-24T15:32:37;16.10;99.90
17174;DHT22;8702;48.130;-1.696;2023-04-24T15:35:05;16.50;99.90
17174;DHT22;8702;48.130;-1.696;2023-04-24T15:37:32;16.90;99.90
17174;DHT22;8702;48.130;-1.696;2023-04-24T15:39:59;17.10;99.90
17174;DHT22;8702;48.130;-1.696;2023-04-24T15:42:28;17.00;99.90
17174;DHT22;8702;48.130;-1.696;2023-04-24T15:44:55;17.20;99.90
17174;DHT22;8702;48.130;-1.696;2023-04-24T15:47:22;17.50;99.90
17174;DHT22;8702;48.130;-1.696;2023-04-24T15:49:51;17.50;99.90
17174;DHT22;8702;48.130;-1.696;2023-04-24T15:52:18;17.40;99.90
17174;DHT22;8702;48.130;-1.696;2023-04-24T15:54:45;17.10;99.90
17174;DHT22;8702;48.130;-1.696;2023-04-24T15:57:12;17.10;99.90
17174;DHT22;8702;48.130;-1.696;2023-04-24T15:59:39;17.40;99.90